KTWF/TWF METAR and TAF weather

Enter ICAO airport designator
Station Type Date Time Source
KTWF METAR 2020/02/16 20:08 UTC NOAA

KTWF 162008Z 30017KT 7SM -RA BKN008 OVC012 03/02 A3000 RMK AO2 P0001 T00280022


Station Type Date Time Source
KTWF Decoded METAR 2020/02/16 20:08 UTC NOAA

JOSLIN FLD-MAGIC VALLEY REGL, ID, United States (KTWF) 42-29N 114-29W 1266M
Feb 16, 2020 - 03:08 PM EST / 2020.02.16 2008 UTC
Wind: from the WNW (300 degrees) at 20 MPH (17 KT):0
Visibility: 7 mile(s):0
Sky conditions: overcast
Weather: light rain
Precipitation last hour: 0.01 inches
Temperature: 37.0 F (2.8 C)
Dew Point: 36.0 F (2.2 C)
Relative Humidity: 95%
Pressure (altimeter): 30 in. Hg (1015 hPa)
ob: KTWF 162008Z 30017KT 7SM -RA BKN008 OVC012 03/02 A3000 RMK AO2 P0001 T00280022
cycle: 20

Station Type Date Time Source
KTWF TAF 2020/02/16 20:06 UTC NOAA

TAF
AMD KTWF 162004Z 1620/1718 31015KT P6SM -RA FEW005 OVC015
FM162300 26022G30KT 6SM -SHRASN BKN035
FM170300 24015G25KT P6SM VCSH SCT050 BKN100
FM171000 23012KT P6SM SCT120

Example: see airport list